Time;durP1;ratioP1;P1;durP2;ratioP2;P2;SDS_P1;SDS_P2;PMS_P1;PMS_P2;Temp;Humidity;BMP_temperature;BMP_pressure;BME280_temperature;BME280_humidity;BME280_pressure;Samples;Min_cycle;Max_cycle;Signal;HPM_P1;HPM_P2
2021/07/02 05:07:29;;;;;;;;;38.50;34.75;;;;;17.92;74.70;101597.84;5774879;23;46006;-75
2021/07/02 05:09:54;;;;;;;;;35.50;32.75;;;;;17.99;75.00;101598.38;4995844;28;46260;-78
2021/07/02 05:12:20;;;;;;;;;35.00;32.50;;;;;18.08;75.11;101605.03;4999029;28;45266;-77
2021/07/02 05:14:46;;;;;;;;;36.75;31.25;;;;;18.20;74.88;101606.22;4977702;28;45214;-77
2021/07/02 05:17:11;;;;;;;;;39.50;34.50;;;;;18.22;75.07;101591.91;4972798;28;46155;-77
2021/07/02 05:19:40;;;;;;;;;41.50;35.25;;;;;18.35;75.02;101607.22;4997625;28;45885;-77
2021/07/02 05:22:06;;;;;;;;;41.75;33.50;;;;;18.39;75.17;101595.50;4975219;28;45577;-77
2021/07/02 05:24:32;;;;;;;;;46.75;36.00;;;;;18.44;74.38;101593.47;4998681;28;45487;-77
2021/07/02 05:26:57;;;;;;;;;38.00;33.75;;;;;18.53;74.02;101594.75;4992653;28;45431;-77
2021/07/02 05:29:22;;;;;;;;;41.75;36.50;;;;;18.54;73.80;101591.13;4996917;28;46487;-77
2021/07/02 05:31:48;;;;;;;;;43.25;34.75;;;;;18.57;73.64;101581.28;4988986;28;46398;-77
2021/07/02 05:34:13;;;;;;;;;33.00;29.50;;;;;18.64;73.75;101591.50;4998849;28;45554;-76
2021/07/02 05:36:39;;;;;;;;;42.00;34.50;;;;;18.74;73.63;101593.69;4999370;28;45319;-76
2021/07/02 05:39:04;;;;;;;;;35.75;33.25;;;;;18.84;73.44;101589.56;4999249;28;45310;-76
2021/07/02 05:41:29;;;;;;;;;43.00;34.00;;;;;18.92;73.62;101588.28;4998216;28;45305;-77
2021/07/02 05:43:55;;;;;;;;;32.00;29.00;;;;;18.97;73.18;101602.22;4987145;28;45295;-77
2021/07/02 05:46:20;;;;;;;;;33.25;29.50;;;;;19.06;72.63;101601.69;4998970;28;45398;-77
2021/07/02 05:48:48;;;;;;;;;38.00;34.25;;;;;19.15;72.76;101600.34;4999451;28;45265;-77
2021/07/02 05:51:13;;;;;;;;;39.25;35.25;;;;;19.19;73.12;101601.03;4998413;28;45710;-77
2021/07/02 05:53:38;;;;;;;;;37.00;34.00;;;;;19.26;73.12;101601.56;4997708;28;45293;-77
2021/07/02 05:56:04;;;;;;;;;41.00;34.50;;;;;19.29;73.29;101604.03;4996460;28;45252;-77
2021/07/02 05:58:29;;;;;;;;;41.75;35.75;;;;;19.31;72.65;101597.69;4991530;28;45213;-77
2021/07/02 06:00:56;;;;;;;;;49.00;38.50;;;;;19.36;72.50;101604.56;4999001;28;45444;-77
2021/07/02 06:03:21;;;;;;;;;46.00;35.75;;;;;19.33;72.47;101594.94;4999487;28;45455;-77
2021/07/02 06:05:46;;;;;;;;;50.00;39.00;;;;;19.38;72.02;101589.34;4994229;28;45315;-78
2021/07/02 06:08:12;;;;;;;;;46.25;37.50;;;;;19.41;72.04;101594.53;4993852;28;45467;-78
2021/07/02 06:10:37;;;;;;;;;48.75;37.50;;;;;19.49;71.86;101596.72;4997401;28;45299;-77
2021/07/02 06:13:03;;;;;;;;;45.00;36.75;;;;;19.49;71.45;101591.38;5000198;28;45454;-78
2021/07/02 06:15:28;;;;;;;;;43.75;34.50;;;;;19.53;70.85;101604.44;5001768;28;45548;-77
2021/07/02 06:17:54;;;;;;;;;47.75;38.00;;;;;19.54;71.04;101599.97;4998860;28;45561;-77
2021/07/02 06:20:24;;;;;;;;;47.75;37.25;;;;;19.52;71.03;101597.41;5000514;28;45439;-77
2021/07/02 06:22:50;;;;;;;;;45.50;37.75;;;;;19.54;70.78;101594.66;4998550;28;45589;-77
2021/07/02 06:25:16;;;;;;;;;36.25;33.50;;;;;19.61;70.68;101600.47;4989105;28;45478;-77
2021/07/02 06:27:41;;;;;;;;;48.50;39.75;;;;;19.71;70.42;101600.81;4987395;28;45471;-77
2021/07/02 06:30:07;;;;;;;;;46.75;39.00;;;;;19.69;70.37;101590.22;4993195;28;45519;-77
2021/07/02 06:32:33;;;;;;;;;45.50;37.50;;;;;19.71;70.20;101595.47;5000773;28;45407;-77
2021/07/02 06:34:59;;;;;;;;;50.50;37.50;;;;;19.73;70.42;101588.25;4998933;28;45514;-79
2021/07/02 06:37:24;;;;;;;;;44.50;36.75;;;;;19.85;70.41;101605.34;5000050;28;46339;-77
2021/07/02 06:39:50;;;;;;;;;39.50;35.75;;;;;19.82;69.96;101603.72;4999667;28;45451;-75
2021/07/02 06:42:15;;;;;;;;;40.50;34.00;;;;;19.86;69.99;101607.03;5000514;28;45376;-76
2021/07/02 06:44:40;;;;;;;;;52.00;38.25;;;;;19.86;70.25;101596.38;4998727;28;45298;-76
2021/07/02 06:47:06;;;;;;;;;50.00;36.50;;;;;19.93;70.00;101605.72;5002132;28;45257;-76
2021/07/02 06:49:31;;;;;;;;;50.50;38.25;;;;;19.91;69.74;101586.28;5001943;28;45245;-76
2021/07/02 06:51:57;;;;;;;;;47.75;38.50;;;;;19.98;69.96;101601.00;4998556;28;45348;-76
2021/07/02 06:54:23;;;;;;;;;45.75;39.00;;;;;19.94;69.71;101596.78;4998898;28;45286;-76
2021/07/02 06:57:03;;;;;;;;;45.50;37.25;;;;;20.03;69.83;101606.03;4998927;28;45534;-76
2021/07/02 06:59:33;;;;;;;;;49.50;38.50;;;;;20.02;69.54;101599.88;4999934;28;45439;-76
2021/07/02 07:02:00;;;;;;;;;43.00;37.25;;;;;20.07;69.43;101607.59;5002035;28;45308;-76
2021/07/02 07:04:29;;;;;;;;;37.25;34.25;;;;;20.10;69.22;101606.56;5000559;28;45304;-76
2021/07/02 07:06:55;;;;;;;;;48.50;39.50;;;;;20.16;69.41;101613.34;5000494;28;45673;-76
2021/07/02 07:09:20;;;;;;;;;40.25;35.50;;;;;20.15;69.30;101600.97;4998559;28;45512;-77
2021/07/02 07:11:46;;;;;;;;;45.00;37.75;;;;;20.19;69.33;101607.84;4999817;28;45290;-77
2021/07/02 07:14:11;;;;;;;;;36.00;31.00;;;;;20.25;68.73;101618.13;4992962;28;45261;-77
2021/07/02 07:16:37;;;;;;;;;47.75;34.75;;;;;20.21;68.85;101597.91;4996789;28;45470;-76
2021/07/02 07:19:02;;;;;;;;;50.50;39.25;;;;;20.26;69.05;101608.31;4988455;28;45308;-77
2021/07/02 07:21:28;;;;;;;;;34.75;31.25;;;;;20.31;68.44;101615.09;4997218;28;45230;-77
2021/07/02 07:23:53;;;;;;;;;34.75;30.50;;;;;20.33;67.99;101618.53;5000933;28;45337;-77
2021/07/02 07:26:18;;;;;;;;;48.50;37.75;;;;;20.29;68.48;101610.81;5000526;28;45546;-77
2021/07/02 07:28:44;;;;;;;;;45.25;39.00;;;;;20.34;67.85;101614.94;4993517;28;45207;-78
2021/07/02 07:31:09;;;;;;;;;47.75;38.75;;;;;20.39;68.26;101616.44;4994525;28;45372;-79
2021/07/02 07:33:39;;;;;;;;;49.50;40.75;;;;;20.34;67.60;101606.91;4995722;28;45468;-78
2021/07/02 07:36:05;;;;;;;;;47.25;38.25;;;;;20.40;67.36;101613.66;5000358;28;46204;-77
2021/07/02 07:38:30;;;;;;;;;48.50;38.00;;;;;20.40;67.19;101603.00;5001022;28;45771;-77
2021/07/02 07:40:56;;;;;;;;;50.25;40.50;;;;;20.45;67.85;101611.56;5000866;28;45198;-77
2021/07/02 07:43:24;;;;;;;;;33.75;30.75;;;;;20.50;67.43;101607.75;5000630;28;45373;-76
2021/07/02 07:45:49;;;;;;;;;36.50;33.25;;;;;20.55;67.23;101605.66;5000435;28;46591;-77
2021/07/02 07:48:14;;;;;;;;;38.75;34.50;;;;;20.56;66.99;101608.25;4987875;28;45231;-76
2021/07/02 07:50:45;;;;;;;;;31.50;28.25;;;;;20.61;66.47;101610.63;5001435;28;45234;-76
2021/07/02 07:53:10;;;;;;;;;35.25;32.75;;;;;20.66;66.78;101618.38;5000863;28;45523;-76
2021/07/02 07:55:36;;;;;;;;;36.00;31.25;;;;;20.68;66.41;101625.31;5000531;28;45319;-76
2021/07/02 07:58:02;;;;;;;;;42.25;33.25;;;;;20.66;66.49;101618.38;4999569;28;45471;-76
2021/07/02 08:00:28;;;;;;;;;57.75;43.75;;;;;20.74;67.09;101631.25;5000657;28;45283;-75
2021/07/02 08:02:54;;;;;;;;;42.75;35.50;;;;;20.77;66.96;101628.34;5000949;28;45447;-75
2021/07/02 08:05:19;;;;;;;;;44.50;36.00;;;;;20.83;66.23;101630.66;4983034;28;47200;-75
2021/07/02 08:07:45;;;;;;;;;43.25;37.00;;;;;20.84;66.05;101629.69;4999859;28;45234;-75
2021/07/02 08:10:13;;;;;;;;;33.00;28.75;;;;;20.87;66.09;101624.16;5001094;28;45300;-75
2021/07/02 08:12:39;;;;;;;;;40.50;35.00;;;;;20.95;66.01;101633.50;4997413;28;45465;-75
2021/07/02 08:15:08;;;;;;;;;33.00;29.75;;;;;20.99;66.03;101632.38;5000580;28;45443;-76
2021/07/02 08:17:34;;;;;;;;;28.00;26.50;;;;;20.98;65.39;101618.16;4993725;28;45615;-76
2021/07/02 08:20:00;;;;;;;;;28.50;27.75;;;;;21.04;65.12;101626.78;4983180;28;45385;-76
2021/07/02 08:22:27;;;;;;;;;30.25;26.50;;;;;21.05;65.56;101629.31;4982623;28;46882;-76
2021/07/02 08:24:53;;;;;;;;;31.25;30.25;;;;;21.05;65.96;101629.31;5000487;28;45473;-76
2021/07/02 08:27:20;;;;;;;;;32.50;31.25;;;;;21.06;65.62;101628.38;4999790;28;45433;-75
2021/07/02 08:29:45;;;;;;;;;26.75;24.25;;;;;21.11;65.66;101628.91;5000125;28;45494;-76
2021/07/02 08:32:11;;;;;;;;;24.75;24.00;;;;;21.16;64.70;101630.47;5000518;28;45266;-76
2021/07/02 08:34:36;;;;;;;;;30.00;29.25;;;;;21.16;64.87;101622.44;5000567;28;46216;-76
2021/07/02 08:37:02;;;;;;;;;34.75;29.75;;;;;21.14;64.95;101618.03;4999988;28;45260;-76
2021/07/02 08:39:27;;;;;;;;;28.75;27.00;;;;;21.25;64.53;101630.72;5000326;28;45221;-76
2021/07/02 08:41:53;;;;;;;;;29.00;26.00;;;;;21.25;64.75;101621.84;4995352;28;45414;-76
2021/07/02 08:44:18;;;;;;;;;27.50;25.25;;;;;21.32;64.11;101628.50;4993409;28;45372;-76
2021/07/02 08:46:47;;;;;;;;;22.75;22.25;;;;;21.30;63.92;101622.41;4999908;28;45208;-76
2021/07/02 08:49:13;;;;;;;;;25.25;23.75;;;;;21.32;64.04;101622.28;4981108;28;45321;-76
2021/07/02 08:51:39;;;;;;;;;34.25;29.50;;;;;21.32;64.32;101614.28;4994038;28;45363;-76
2021/07/02 08:54:05;;;;;;;;;25.50;21.00;;;;;21.36;63.64;101615.78;4999119;28;46362;-76
2021/07/02 08:56:31;;;;;;;;;27.25;25.50;;;;;21.35;63.41;101611.41;4988107;28;45493;-76
2021/07/02 08:58:56;;;;;;;;;22.75;19.00;;;;;21.39;63.54;101615.59;4999929;28;45522;-76
2021/07/02 09:01:38;;;;;;;;;27.50;23.00;;;;;21.41;63.07;101610.16;5000189;28;45463;-77
2021/07/02 09:04:20;;;;;;;;;23.75;22.75;;;;;21.42;63.00;101607.38;4999981;28;46226;-77
2021/07/02 09:07:05;;;;;;;;;20.50;19.75;;;;;21.45;63.14;101611.66;4991391;28;45577;-77
2021/07/02 09:09:51;;;;;;;;;17.25;16.00;;;;;21.41;62.71;101596.78;4987792;28;45489;-77
2021/07/02 09:12:19;;;;;;;;;25.50;20.75;;;;;21.50;62.30;101608.69;4975729;28;46936;-77
2021/07/02 09:14:56;;;;;;;;;21.75;19.50;;;;;21.52;62.41;101604.94;4995450;28;45368;-77
2021/07/02 09:17:24;;;;;;;;;17.25;17.25;;;;;21.51;62.23;101605.91;4977435;28;45530;-77
2021/07/02 09:20:04;;;;;;;;;17.75;15.25;;;;;21.59;61.55;101605.38;5000007;28;45452;-77
2021/07/02 09:22:39;;;;;;;;;14.50;14.50;;;;;21.62;60.84;101605.19;4999275;28;45523;-77
2021/07/02 09:25:24;;;;;;;;;16.50;16.25;;;;;21.67;62.00;101597.72;4999247;28;45432;-77
2021/07/02 09:27:51;;;;;;;;;19.75;18.00;;;;;21.72;61.64;101594.75;4999424;28;45261;-77
2021/07/02 09:30:19;;;;;;;;;18.25;17.00;;;;;21.68;61.93;101587.88;4999705;28;45469;-77
2021/07/02 09:32:47;;;;;;;;;19.50;18.00;;;;;21.75;60.98;101599.88;4981737;28;45456;-77
2021/07/02 09:35:14;;;;;;;;;17.75;17.75;;;;;21.73;61.66;101587.56;4999203;28;45358;-77
2021/07/02 09:37:42;;;;;;;;;20.00;18.50;;;;;21.74;61.29;101586.59;4999422;28;45357;-77
2021/07/02 09:40:18;;;;;;;;;18.25;18.00;;;;;21.75;60.91;101591.88;4999819;28;45436;-77
2021/07/02 09:42:45;;;;;;;;;19.50;19.25;;;;;21.73;61.52;101585.72;5002203;28;45511;-77
2021/07/02 09:45:18;;;;;;;;;19.50;19.50;;;;;21.80;61.41;101584.34;5000601;28;46175;-77
2021/07/02 09:47:46;;;;;;;;;21.25;18.50;;;;;21.78;61.50;101580.09;5002927;28;45241;-77
2021/07/02 09:50:24;;;;;;;;;20.75;18.25;;;;;21.84;61.00;101587.69;5003304;28;45269;-77
2021/07/02 09:53:01;;;;;;;;;20.00;18.75;;;;;21.80;60.94;101584.34;5002306;28;45456;-77
2021/07/02 09:55:31;;;;;;;;;19.50;16.75;;;;;21.86;61.36;101590.25;5002450;28;45178;-77
2021/07/02 09:58:04;;;;;;;;;18.25;15.50;;;;;21.81;60.92;101578.06;5002764;28;45831;-77
2021/07/02 10:00:32;;;;;;;;;17.50;15.75;;;;;21.86;61.55;101580.44;5002881;28;45230;-77
2021/07/02 10:02:59;;;;;;;;;19.00;16.50;;;;;21.91;60.82;101583.66;5002626;28;45379;-77
2021/07/02 10:05:26;;;;;;;;;17.75;16.75;;;;;21.96;61.23;101586.03;5002302;28;46365;-77
2021/07/02 10:07:56;;;;;;;;;18.50;15.50;;;;;21.97;60.42;101584.22;5002001;28;45372;-77
2021/07/02 10:10:26;;;;;;;;;15.75;14.00;;;;;21.95;60.90;101578.13;4981896;28;45607;-77
2021/07/02 10:12:53;;;;;;;;;17.25;16.00;;;;;22.00;60.77;101571.47;5002463;28;45546;-77
2021/07/02 10:15:19;;;;;;;;;18.75;18.00;;;;;22.08;60.66;101572.75;5001588;28;45688;-77
2021/07/02 10:17:45;;;;;;;;;17.50;15.50;;;;;22.19;59.49;101569.34;5002431;28;45161;-77
2021/07/02 10:20:13;;;;;;;;;20.50;19.50;;;;;22.31;60.04;101570.31;4996243;28;45358;-77
2021/07/02 10:22:40;;;;;;;;;20.75;16.25;;;;;22.40;59.93;101561.63;4996442;28;45311;-75
2021/07/02 10:25:07;;;;;;;;;18.75;17.75;;;;;22.48;59.24;101567.28;4984762;28;47394;-75
2021/07/02 10:27:33;;;;;;;;;19.25;17.00;;;;;22.60;58.06;101572.72;5002018;28;45856;-75
2021/07/02 10:30:00;;;;;;;;;17.75;16.00;;;;;22.66;58.81;101572.31;5002476;28;45224;-75
2021/07/02 10:32:27;;;;;;;;;18.25;18.00;;;;;22.69;58.76;101561.38;5002432;28;45487;-75
2021/07/02 10:34:52;;;;;;;;;18.25;16.75;;;;;22.78;58.74;101559.88;5001613;28;45416;-75
2021/07/02 10:37:18;;;;;;;;;17.75;14.00;;;;;22.85;58.04;101565.63;4994037;28;45338;-75
2021/07/02 10:39:46;;;;;;;;;17.75;14.75;;;;;22.91;57.92;101575.91;4998460;28;45334;-75
2021/07/02 10:42:14;;;;;;;;;18.75;18.25;;;;;22.91;58.11;101573.25;4984349;28;47112;-75
2021/07/02 10:44:59;;;;;;;;;14.75;13.50;;;;;22.95;57.29;101570.31;5001681;28;46040;-75
2021/07/02 10:47:25;;;;;;;;;18.25;13.25;;;;;22.98;56.14;101580.81;4976394;28;45971;-75
2021/07/02 10:49:53;;;;;;;;;16.25;13.00;;;;;22.98;56.44;101570.09;5001239;28;45528;-75
2021/07/02 10:52:30;;;;;;;;;18.50;16.75;;;;;23.03;56.44;101570.63;4982140;28;45404;-75
2021/07/02 10:54:57;;;;;;;;;19.25;18.25;;;;;23.01;56.77;101567.19;4982180;28;47003;-75
2021/07/02 10:57:24;;;;;;;;;15.50;15.50;;;;;23.03;57.43;101570.63;4992367;28;45483;-75
2021/07/02 10:59:50;;;;;;;;;19.75;18.00;;;;;23.00;56.89;101568.16;5001645;28;45286;-75
2021/07/02 11:02:25;;;;;;;;;15.50;14.00;;;;;22.95;57.13;101560.47;5002086;28;45429;-75
2021/07/02 11:04:59;;;;;;;;;15.75;12.00;;;;;22.99;57.23;101561.94;5002033;28;45543;-75
2021/07/02 11:07:29;;;;;;;;;14.50;14.50;;;;;23.01;56.75;101551.13;5000987;28;45230;-76
2021/07/02 11:10:05;;;;;;;;;14.50;13.75;;;;;23.03;56.79;101552.72;5001014;28;45486;-79
2021/07/02 11:12:33;;;;;;;;;15.50;13.00;;;;;23.06;56.05;101545.41;5001661;28;45561;-77
2021/07/02 11:14:58;;;;;;;;;14.50;13.50;;;;;23.16;55.41;101547.28;5001523;28;45514;-77
2021/07/02 11:17:28;;;;;;;;;16.75;13.75;;;;;23.22;56.24;101547.81;4995766;28;45403;-77
2021/07/02 11:20:14;;;;;;;;;17.00;15.75;;;;;23.20;56.27;101547.94;5001549;28;45298;-77
2021/07/02 11:22:45;;;;;;;;;15.00;14.75;;;;;23.10;55.76;101531.66;5001148;28;45372;-77
2021/07/02 11:25:23;;;;;;;;;12.50;12.25;;;;;23.09;56.47;101543.34;5001301;28;45438;-77
2021/07/02 11:27:51;;;;;;;;;15.75;13.75;;;;;23.13;56.03;101531.44;5000509;28;45681;-77
2021/07/02 11:30:20;;;;;;;;;14.75;13.50;;;;;23.16;56.00;101531.19;5001734;28;45225;-77
2021/07/02 11:32:47;;;;;;;;;14.25;14.00;;;;;23.11;56.26;101527.16;5001299;28;45539;-77
2021/07/02 11:35:44;;;;;;;;;19.25;17.50;;;;;23.07;55.94;101529.22;5000153;28;46603;-77
2021/07/02 11:38:21;;;;;;;;;15.50;14.75;;;;;23.00;56.43;101525.28;5000319;28;45429;-77
2021/07/02 11:40:48;;;;;;;;;13.75;13.75;;;;;23.00;56.40;101533.31;5001543;28;45238;-77
2021/07/02 11:43:16;;;;;;;;;14.00;14.00;;;;;22.92;55.79;101525.84;5000463;28;45407;-77
2021/07/02 11:45:53;;;;;;;;;17.25;16.25;;;;;22.87;55.74;101525.31;5001265;28;45357;-78
2021/07/02 11:48:21;;;;;;;;;15.25;13.75;;;;;22.87;56.67;101526.19;4996315;28;45511;-77
2021/07/02 11:50:50;;;;;;;;;16.00;16.00;;;;;22.85;56.19;101525.44;4992860;28;45238;-78
2021/07/02 11:53:33;;;;;;;;;19.00;15.00;;;;;22.86;56.61;101529.84;5000499;28;45214;-77
2021/07/02 11:56:05;;;;;;;;;16.50;14.75;;;;;22.85;56.71;101532.63;5001117;28;46185;-77
2021/07/02 11:58:50;;;;;;;;;17.75;16.75;;;;;22.83;56.53;101524.69;5000231;28;45663;-79
2021/07/02 12:01:21;;;;;;;;;15.50;15.50;;;;;22.84;56.66;101526.41;4994538;28;45475;-78
2021/07/02 12:03:51;;;;;;;;;18.75;16.25;;;;;22.90;56.86;101525.09;4999848;28;45444;-78
2021/07/02 12:06:25;;;;;;;;;16.50;14.00;;;;;22.89;56.58;101515.38;4982581;28;46424;-78
2021/07/02 12:09:06;;;;;;;;;18.75;16.50;;;;;22.93;56.65;101520.38;4993911;28;45824;-78
2021/07/02 12:11:36;;;;;;;;;14.25;14.25;;;;;22.97;56.36;101518.31;5000704;28;45475;-78
2021/07/02 16:33:41;;;;;;;;;12.50;8.25;;;;;23.60;54.40;101390.31;5574899;23;46429;-76
2021/07/02 16:36:06;;;;;;;;;12.00;8.25;;;;;23.64;53.86;101388.22;4994160;28;45581;-76
2021/07/02 16:38:32;;;;;;;;;10.75;10.00;;;;;23.62;53.92;101380.31;4993626;28;46133;-79
2021/07/02 16:40:57;;;;;;;;;8.50;8.25;;;;;23.63;54.39;101383.84;5000314;28;45415;-77
2021/07/02 16:43:23;;;;;;;;;10.75;8.50;;;;;23.64;53.85;101372.97;4981931;28;45347;-76
2021/07/02 16:45:48;;;;;;;;;11.25;9.00;;;;;23.67;54.06;101378.13;4998607;28;45175;-76
2021/07/02 16:48:14;;;;;;;;;10.00;9.25;;;;;23.64;53.95;101366.75;4999972;28;45324;-76
2021/07/02 16:50:41;;;;;;;;;8.00;8.00;;;;;23.67;53.74;101371.88;4997292;28;45484;-76
2021/07/02 16:53:07;;;;;;;;;12.25;10.50;;;;;23.65;54.05;101372.03;5000546;28;45162;-76
2021/07/02 16:55:33;;;;;;;;;10.50;8.50;;;;;23.61;53.90;101365.16;4995956;28;45507;-76
2021/07/02 16:57:58;;;;;;;;;11.50;9.75;;;;;23.60;54.52;101361.66;4999328;28;45336;-77
2021/07/02 17:00:24;;;;;;;;;10.25;9.50;;;;;23.64;54.01;101366.75;4990593;28;45538;-77
2021/07/02 17:02:49;;;;;;;;;8.25;8.25;;;;;23.64;53.97;101369.44;4998619;28;45345;-77
2021/07/02 17:05:14;;;;;;;;;10.00;9.75;;;;;23.58;53.93;101365.44;4999575;28;45399;-77
2021/07/02 17:07:40;;;;;;;;;8.25;8.25;;;;;23.54;54.07;101367.50;4998413;28;45471;-77
2021/07/02 17:10:06;;;;;;;;;8.25;8.25;;;;;23.50;54.01;101366.03;4990859;28;45584;-76
2021/07/02 17:12:31;;;;;;;;;8.50;8.50;;;;;23.48;54.24;101365.28;4990083;28;45380;-76
2021/07/02 17:14:56;;;;;;;;;8.25;8.25;;;;;23.47;54.08;101367.09;4999168;28;45518;-76
2021/07/02 17:17:22;;;;;;;;;5.00;5.00;;;;;23.48;54.00;101365.28;4996520;28;45364;-76
2021/07/02 17:19:48;;;;;;;;;11.00;10.00;;;;;23.45;54.55;101365.50;4993747;28;45310;-76
2021/07/02 17:22:16;;;;;;;;;10.75;9.00;;;;;23.44;54.56;101366.47;4995473;28;45226;-77
2021/07/02 17:24:41;;;;;;;;;13.50;11.00;;;;;23.44;54.46;101355.75;4982715;28;45329;-77
2021/07/02 17:27:07;;;;;;;;;10.00;10.00;;;;;23.46;54.46;101361.84;4991860;28;46272;-77
2021/07/02 17:29:32;;;;;;;;;9.75;9.75;;;;;23.44;54.25;101347.69;4999492;28;45579;-77
2021/07/02 17:31:58;;;;;;;;;11.00;11.00;;;;;23.43;54.73;101351.38;4996956;28;45487;-77
2021/07/02 17:34:23;;;;;;;;;9.00;9.00;;;;;23.42;54.13;101355.88;4998729;28;45466;-77
2021/07/02 17:36:49;;;;;;;;;9.75;9.00;;;;;23.40;54.18;101349.78;4999577;28;46394;-77
2021/07/02 17:39:15;;;;;;;;;13.50;11.00;;;;;23.40;54.61;101351.59;4999557;28;45352;-77
2021/07/02 17:41:41;;;;;;;;;10.25;10.25;;;;;23.38;54.78;101354.41;4991123;28;45357;-77
2021/07/02 17:44:07;;;;;;;;;7.25;7.00;;;;;23.39;54.21;101358.78;4994143;28;45428;-77
2021/07/02 17:46:33;;;;;;;;;7.50;6.50;;;;;23.37;54.02;101361.59;4979554;28;45434;-77
2021/07/02 17:48:59;;;;;;;;;8.25;8.25;;;;;23.38;54.46;101357.09;4984497;28;45648;-77
2021/07/02 17:51:25;;;;;;;;;11.25;9.00;;;;;23.41;54.34;101366.75;4998776;28;45642;-77
2021/07/02 17:53:51;;;;;;;;;10.75;9.00;;;;;23.43;54.49;101356.72;4999676;28;45241;-77
2021/07/02 17:56:16;;;;;;;;;9.50;9.00;;;;;23.43;54.15;101362.09;4998301;28;46434;-77
2021/07/02 17:58:41;;;;;;;;;9.00;8.75;;;;;23.45;54.11;101354.78;4978724;28;45227;-77
2021/07/02 18:01:07;;;;;;;;;9.25;9.25;;;;;23.42;53.57;101350.50;4994174;28;45161;-76
2021/07/02 18:03:35;;;;;;;;;8.00;8.00;;;;;23.48;53.31;101357.22;4997454;28;45472;-77
2021/07/02 18:06:01;;;;;;;;;8.75;8.75;;;;;23.55;54.25;101365.66;4993993;28;46187;-77
2021/07/02 18:08:29;;;;;;;;;9.75;8.50;;;;;23.55;53.89;101363.84;5000931;28;46620;-76
2021/07/02 18:10:54;;;;;;;;;8.00;7.75;;;;;23.49;54.12;101348.22;5001817;28;45273;-76
2021/07/02 18:13:20;;;;;;;;;17.00;15.75;;;;;23.47;53.63;101342.97;5001054;28;45408;-76
2021/07/02 18:15:45;;;;;;;;;9.00;9.00;;;;;23.46;54.18;101348.44;5002461;28;46297;-76
2021/07/02 18:18:11;;;;;;;;;11.75;9.25;;;;;23.45;54.42;101349.41;4999485;28;45167;-76
2021/07/02 18:20:37;;;;;;;;;10.25;9.50;;;;;23.40;53.87;101351.59;5000462;28;45412;-77
2021/07/02 18:23:03;;;;;;;;;11.00;9.75;;;;;23.43;54.17;101346.88;4999752;28;45656;-77
2021/07/02 18:25:29;;;;;;;;;10.25;10.25;;;;;23.42;54.20;101338.91;4992562;28;45253;-76
2021/07/02 18:27:54;;;;;;;;;10.25;10.00;;;;;23.47;53.95;101339.41;4995768;28;45408;-77
2021/07/02 18:30:21;;;;;;;;;10.75;10.75;;;;;23.47;53.84;101339.41;4998070;28;45394;-77
2021/07/02 18:32:46;;;;;;;;;11.50;8.75;;;;;23.51;54.06;101348.94;4980864;28;45584;-77
2021/07/02 18:35:13;;;;;;;;;10.25;8.25;;;;;23.57;53.72;101351.16;4991503;28;46402;-77
2021/07/02 18:37:39;;;;;;;;;9.00;9.00;;;;;23.65;53.67;101353.25;4999822;28;45547;-77
2021/07/02 18:40:06;;;;;;;;;9.75;9.75;;;;;23.70;53.40;101355.56;4992281;28;45389;-78
2021/07/02 18:42:32;;;;;;;;;9.50;7.75;;;;;23.70;53.46;101355.56;5001067;28;45539;-78
2021/07/02 18:44:57;;;;;;;;;10.00;10.00;;;;;23.74;53.31;101351.63;4995344;28;46262;-78
2021/07/02 18:47:23;;;;;;;;;13.50;11.25;;;;;23.77;53.14;101351.41;5000940;28;45354;-78
2021/07/02 18:49:48;;;;;;;;;9.25;8.25;;;;;23.77;53.19;101343.34;4982622;28;45483;-78
2021/07/02 18:52:13;;;;;;;;;11.00;10.00;;;;;23.79;53.49;101351.28;5002017;28;45383;-78
2021/07/02 18:54:39;;;;;;;;;8.00;7.75;;;;;23.85;53.36;101347.25;5001604;28;46628;-78
2021/07/02 18:57:06;;;;;;;;;10.25;9.25;;;;;23.84;52.85;101351.75;5001741;28;45260;-78
2021/07/02 18:59:31;;;;;;;;;14.00;12.00;;;;;23.88;52.98;101357.75;5002058;28;45347;-78
2021/07/02 19:01:57;;;;;;;;;12.00;9.25;;;;;23.88;53.29;101352.38;5002078;28;45498;-78
2021/07/02 19:04:22;;;;;;;;;10.00;9.00;;;;;23.89;53.33;101352.25;5000148;28;45420;-78
2021/07/02 19:06:50;;;;;;;;;11.25;10.25;;;;;23.93;53.23;101355.50;4991530;28;45271;-78
2021/07/02 19:09:16;;;;;;;;;13.00;11.25;;;;;23.91;53.04;101352.09;5001448;28;45157;-78
2021/07/02 19:11:42;;;;;;;;;10.00;8.75;;;;;23.89;52.90;101344.19;5001770;28;45562;-78
2021/07/02 19:14:07;;;;;;;;;15.75;13.00;;;;;23.92;53.45;101349.31;5000721;28;45503;-78
2021/07/02 19:16:36;;;;;;;;;12.25;10.75;;;;;23.91;53.31;101341.38;5001444;28;45272;-78
2021/07/02 19:19:06;;;;;;;;;11.25;10.50;;;;;23.91;52.97;101346.75;5001702;28;45336;-78
2021/07/02 19:21:34;;;;;;;;;15.00;12.50;;;;;23.91;53.19;101342.22;5001573;28;45516;-77
2021/07/02 19:24:02;;;;;;;;;13.25;12.00;;;;;23.88;53.51;101336.28;4996854;28;46538;-77
2021/07/02 19:26:27;;;;;;;;;12.50;11.50;;;;;23.88;53.86;101347.00;4998301;28;45546;-77
2021/07/02 19:28:53;;;;;;;;;10.50;10.50;;;;;23.78;53.77;101337.00;5001199;28;45217;-77
2021/07/02 19:31:18;;;;;;;;;12.00;12.00;;;;;23.76;53.86;101340.78;5000570;28;45226;-77
2021/07/02 19:33:44;;;;;;;;;14.00;12.00;;;;;23.73;53.56;101347.25;5000762;28;46479;-77
2021/07/02 19:36:09;;;;;;;;;15.50;13.25;;;;;23.63;54.03;101339.06;5001565;28;45279;-77
2021/07/02 19:38:35;;;;;;;;;14.25;12.00;;;;;23.60;54.13;101350.94;4999902;28;46381;-77
2021/07/02 19:41:05;;;;;;;;;12.25;11.25;;;;;23.54;54.56;101350.53;5001288;28;45415;-77
2021/07/02 19:43:31;;;;;;;;;14.00;11.25;;;;;23.45;54.32;101341.38;4999236;28;45517;-77
2021/07/02 19:45:57;;;;;;;;;9.25;9.25;;;;;23.40;54.25;101343.56;4993851;28;45906;-77
2021/07/02 19:48:22;;;;;;;;;13.00;11.50;;;;;23.36;54.55;101346.47;4996313;28;45314;-77
2021/07/02 19:50:48;;;;;;;;;10.25;10.25;;;;;23.35;55.01;101347.47;4991192;28;45589;-77
2021/07/02 19:53:14;;;;;;;;;12.50;12.50;;;;;23.29;54.99;101350.59;4997353;28;45630;-77
2021/07/02 19:55:40;;;;;;;;;10.75;10.75;;;;;23.31;54.97;101351.34;5001012;28;45555;-77
2021/07/02 19:58:05;;;;;;;;;10.75;10.25;;;;;23.25;55.24;101349.16;4999930;28;45272;-77
2021/07/02 20:00:31;;;;;;;;;11.75;11.00;;;;;23.21;55.13;101334.28;5000634;28;45150;-77
2021/07/02 20:02:56;;;;;;;;;11.00;11.00;;;;;23.16;55.17;101332.78;4991291;28;46621;-77
2021/07/02 20:05:21;;;;;;;;;13.25;11.25;;;;;23.18;55.30;101354.16;4986538;28;45147;-77
2021/07/02 20:07:47;;;;;;;;;11.50;10.75;;;;;23.09;55.30;101336.94;4994913;28;45548;-77
2021/07/02 20:10:12;;;;;;;;;11.75;9.25;;;;;23.09;55.23;101344.97;4990414;28;45806;-77
2021/07/02 20:12:38;;;;;;;;;12.00;11.50;;;;;23.04;55.35;101339.09;4994413;28;45376;-77
2021/07/02 20:15:05;;;;;;;;;13.00;13.00;;;;;23.02;55.51;101343.75;4994939;28;45447;-77
2021/07/02 20:17:30;;;;;;;;;11.00;9.25;;;;;22.98;55.60;101348.50;4990693;28;45516;-77
2021/07/02 20:19:56;;;;;;;;;10.25;10.25;;;;;22.98;55.51;101350.31;4987651;28;45500;-77
2021/07/02 20:22:22;;;;;;;;;11.25;9.50;;;;;22.91;55.61;101344.56;4991765;28;45469;-77
2021/07/02 20:24:48;;;;;;;;;10.50;10.50;;;;;22.89;55.46;101336.63;4995484;28;45438;-77
2021/07/02 20:27:13;;;;;;;;;11.00;11.00;;;;;22.89;56.03;101347.34;4992155;28;45457;-77
2021/07/02 20:29:39;;;;;;;;;11.50;10.00;;;;;22.88;55.92;101356.38;4992013;28;46652;-76
2021/07/02 20:32:06;;;;;;;;;10.00;10.00;;;;;22.86;56.02;101357.47;4994022;28;46397;-77
2021/07/02 20:34:31;;;;;;;;;11.50;11.25;;;;;22.84;56.20;101346.03;4993301;28;45209;-77
2021/07/02 20:36:57;;;;;;;;;12.00;9.00;;;;;22.84;56.04;101352.22;4990771;28;45147;-77
2021/07/02 20:39:22;;;;;;;;;10.00;9.50;;;;;22.87;55.87;101351.97;4986105;28;45511;-77